createdAt,value
2018-12-19T00:01:40.345Z,20.87
2018-12-19T00:04:09.632Z,19.20
2018-12-19T00:06:38.862Z,19.07
2018-12-19T00:09:08.675Z,17.30
2018-12-19T00:11:38.087Z,17.77
2018-12-19T00:14:07.545Z,18.63
2018-12-19T00:16:36.825Z,18.20
2018-12-19T00:19:06.079Z,17.80
2018-12-19T00:21:35.393Z,17.03
2018-12-19T00:24:04.845Z,17.60
2018-12-19T00:26:34.092Z,18.10
2018-12-19T00:29:04.405Z,18.57
2018-12-19T00:31:33.935Z,20.13
2018-12-19T00:34:03.990Z,18.87
2018-12-19T00:36:34.542Z,19.13
2018-12-19T00:39:09.498Z,18.27
2018-12-19T00:41:36.808Z,17.17
2018-12-19T00:44:06.171Z,16.30
2018-12-19T00:46:35.627Z,18.00
2018-12-19T00:49:04.916Z,19.47
2018-12-19T00:51:34.128Z,16.70
2018-12-19T00:54:03.369Z,18.50
2018-12-19T00:56:32.635Z,19.07
2018-12-19T00:59:02.803Z,18.57
2018-12-19T01:01:32.847Z,18.67
2018-12-19T01:04:02.135Z,15.73
2018-12-19T01:06:31.481Z,18.60
2018-12-19T01:09:01.077Z,18.40
2018-12-19T01:11:30.371Z,18.07
2018-12-19T01:14:00.794Z,18.23
2018-12-19T01:16:30.142Z,19.43
2018-12-19T01:18:59.398Z,19.03
2018-12-19T01:21:28.608Z,18.80
2018-12-19T01:23:57.809Z,19.07
2018-12-19T01:26:27.341Z,20.53
2018-12-19T01:28:56.715Z,19.50
2018-12-19T01:31:25.976Z,21.80
2018-12-19T01:33:55.255Z,22.50
2018-12-19T01:36:24.738Z,21.23
2018-12-19T01:38:54.097Z,18.90
2018-12-19T01:41:23.402Z,21.43
2018-12-19T01:43:52.701Z,17.90
2018-12-19T01:46:22.016Z,21.47
2018-12-19T01:48:51.236Z,21.50
2018-12-19T01:51:20.885Z,21.00
2018-12-19T01:53:50.308Z,20.97
2018-12-19T01:56:19.506Z,22.97
2018-12-19T01:58:48.836Z,21.97
2018-12-19T02:01:18.088Z,22.13
2018-12-19T02:03:47.783Z,20.97
2018-12-19T02:06:17.043Z,20.53
2018-12-19T02:08:46.326Z,20.83
2018-12-19T02:11:15.635Z,22.27
2018-12-19T02:13:44.878Z,21.47
2018-12-19T02:16:14.117Z,22.07
2018-12-19T02:18:43.311Z,21.30
2018-12-19T02:21:12.896Z,19.87
2018-12-19T02:23:42.106Z,21.60
2018-12-19T02:26:11.472Z,20.33
2018-12-19T02:28:41.570Z,19.77
2018-12-19T02:31:10.976Z,19.00
2018-12-19T02:33:40.174Z,19.40
2018-12-19T02:36:09.385Z,18.57
2018-12-19T02:38:38.685Z,18.70
2018-12-19T02:41:07.937Z,19.23
2018-12-19T02:43:37.148Z,17.87
2018-12-19T02:46:06.374Z,19.60
2018-12-19T02:48:36.583Z,20.13
2018-12-19T02:51:05.921Z,18.27
2018-12-19T02:53:35.192Z,16.60
2018-12-19T02:56:04.469Z,17.90
2018-12-19T02:58:33.853Z,18.10
2018-12-19T03:01:03.217Z,19.47
2018-12-19T03:03:32.502Z,18.60
2018-12-19T03:06:01.782Z,21.10
2018-12-19T03:08:31.643Z,20.57
2018-12-19T03:11:00.978Z,19.70
2018-12-19T03:13:30.809Z,19.73
2018-12-19T03:16:00.802Z,20.70
2018-12-19T03:18:30.162Z,19.50
2018-12-19T03:20:59.951Z,19.47
2018-12-19T03:23:30.204Z,20.00
2018-12-19T03:25:59.437Z,18.13
2018-12-19T03:28:28.633Z,19.50
2018-12-19T03:30:57.857Z,20.70
2018-12-19T03:33:27.730Z,18.73
2018-12-19T03:35:56.975Z,18.97
2018-12-19T03:38:26.230Z,19.17
2018-12-19T03:40:55.597Z,18.43
2018-12-19T03:43:24.836Z,18.60
2018-12-19T03:45:54.087Z,17.90
2018-12-19T03:48:28.453Z,18.17
2018-12-19T03:50:57.800Z,19.00
2018-12-19T03:53:28.007Z,17.70
2018-12-19T03:55:57.260Z,16.93
2018-12-19T03:58:26.602Z,19.27
2018-12-19T04:00:55.868Z,18.53
2018-12-19T04:03:25.179Z,17.60
2018-12-19T04:05:54.507Z,18.80
2018-12-19T04:08:23.721Z,17.90
2018-12-19T04:10:52.987Z,17.80
2018-12-19T04:13:22.268Z,17.37
2018-12-19T04:15:51.619Z,17.43
2018-12-19T04:18:20.870Z,16.43
2018-12-19T04:20:50.820Z,17.83
2018-12-19T04:23:20.101Z,17.23
2018-12-19T04:25:49.308Z,16.97
2018-12-19T04:28:18.580Z,18.27
2018-12-19T04:30:47.856Z,17.53
2018-12-19T04:33:17.133Z,17.10
2018-12-19T04:35:46.689Z,18.00
2018-12-19T04:38:16.106Z,17.07
2018-12-19T04:40:45.427Z,18.20
2018-12-19T04:43:14.695Z,18.20
2018-12-19T04:45:44.072Z,18.47
2018-12-19T04:48:13.445Z,17.20
2018-12-19T04:50:42.679Z,16.87
2018-12-19T04:53:14.541Z,15.67
2018-12-19T04:55:43.848Z,16.80
2018-12-19T04:58:13.158Z,16.30
2018-12-19T05:00:42.497Z,17.03
2018-12-19T05:03:11.880Z,16.83
2018-12-19T05:05:41.209Z,15.90
2018-12-19T05:08:10.456Z,16.20
2018-12-19T05:10:39.734Z,16.70
2018-12-19T05:13:15.347Z,15.40
2018-12-19T05:15:45.638Z,14.57
2018-12-19T05:18:14.879Z,14.40
2018-12-19T05:20:45.122Z,15.37
2018-12-19T05:23:14.436Z,15.83
2018-12-19T05:25:43.730Z,14.50
2018-12-19T05:28:12.976Z,15.20
2018-12-19T05:30:42.291Z,15.03
2018-12-19T05:33:11.499Z,15.60
2018-12-19T05:35:40.828Z,15.20
2018-12-19T05:38:10.079Z,15.23
2018-12-19T05:40:39.390Z,14.90
2018-12-19T05:43:23.349Z,16.47
2018-12-19T05:45:52.595Z,16.50
2018-12-19T05:48:21.846Z,16.10
2018-12-19T05:50:51.116Z,16.27
2018-12-19T05:53:20.343Z,14.70
2018-12-19T05:55:49.564Z,15.53
2018-12-19T05:58:18.821Z,16.23
2018-12-19T06:00:48.072Z,15.50
2018-12-19T06:03:17.344Z,14.73
2018-12-19T06:05:47.244Z,15.30
2018-12-19T06:08:16.859Z,14.37
2018-12-19T06:10:46.152Z,13.50
2018-12-19T06:13:15.461Z,14.83
2018-12-19T06:15:44.726Z,14.30
2018-12-19T06:18:13.960Z,14.23
2018-12-19T06:20:43.281Z,15.23
2018-12-19T06:23:15.211Z,14.70
2018-12-19T06:25:44.458Z,14.40
2018-12-19T06:28:13.866Z,13.97
2018-12-19T06:30:43.795Z,14.40
2018-12-19T06:33:13.045Z,14.83
2018-12-19T06:35:42.321Z,15.03
2018-12-19T06:38:11.936Z,16.33
2018-12-19T06:40:41.298Z,15.60
2018-12-19T06:43:10.555Z,16.03
2018-12-19T06:45:39.880Z,17.20
2018-12-19T06:48:09.111Z,16.40
2018-12-19T06:50:38.335Z,16.03
2018-12-19T06:53:07.555Z,16.43
2018-12-19T06:55:36.870Z,14.77
2018-12-19T06:58:06.105Z,14.93
2018-12-19T07:00:35.750Z,16.10
2018-12-19T07:03:05.034Z,15.50
2018-12-19T07:05:34.307Z,16.93
2018-12-19T07:08:03.611Z,14.63
2018-12-19T07:10:38.984Z,14.43
2018-12-19T07:13:04.747Z,14.40
2018-12-19T07:15:34.018Z,14.43
2018-12-19T07:18:03.379Z,14.43
2018-12-19T07:20:34.339Z,14.80
2018-12-19T07:23:03.572Z,13.23
2018-12-19T07:25:33.005Z,13.77
2018-12-19T07:28:02.356Z,13.17
2018-12-19T07:30:31.825Z,13.70
2018-12-19T07:33:01.118Z,14.20
2018-12-19T07:35:30.373Z,15.50
2018-12-19T07:37:59.642Z,13.80
2018-12-19T07:40:29.369Z,13.83
2018-12-19T07:42:58.649Z,15.73
2018-12-19T07:45:28.024Z,14.40
2018-12-19T07:47:57.793Z,14.50
2018-12-19T07:50:27.133Z,13.67
2018-12-19T07:52:56.432Z,13.80
2018-12-19T07:55:27.592Z,15.07
2018-12-19T07:57:56.824Z,14.90
2018-12-19T08:00:27.586Z,13.60
2018-12-19T08:02:57.089Z,14.53
2018-12-19T08:05:26.877Z,13.27
2018-12-19T08:07:57.405Z,14.37
2018-12-19T08:10:26.733Z,14.17
2018-12-19T08:12:55.954Z,13.67
2018-12-19T08:15:25.225Z,13.07
2018-12-19T08:17:54.817Z,13.63
2018-12-19T08:20:24.073Z,13.60
2018-12-19T08:22:53.435Z,13.17
2018-12-19T08:25:22.662Z,13.20
2018-12-19T08:27:51.986Z,13.23
2018-12-19T08:30:21.930Z,13.30
2018-12-19T08:32:51.279Z,13.07
2018-12-19T08:35:21.142Z,12.30
2018-12-19T08:37:50.434Z,13.53
2018-12-19T08:40:19.700Z,12.60
2018-12-19T08:42:48.952Z,12.17
2018-12-19T08:45:18.502Z,11.23
2018-12-19T08:47:48.034Z,12.63
2018-12-19T08:50:17.610Z,12.83
2018-12-19T08:52:46.839Z,13.87
2018-12-19T08:55:16.115Z,12.13
2018-12-19T08:57:46.243Z,11.53
2018-12-19T09:00:16.312Z,12.60
2018-12-19T09:02:45.598Z,12.20
2018-12-19T09:05:16.625Z,13.93
2018-12-19T09:07:46.098Z,13.03
2018-12-19T09:10:15.370Z,12.50
2018-12-19T09:12:44.800Z,13.07
2018-12-19T09:15:16.084Z,12.53
2018-12-19T09:17:46.300Z,12.13
2018-12-19T09:20:16.303Z,11.97
2018-12-19T09:22:46.751Z,12.20
2018-12-19T09:25:16.022Z,12.07
2018-12-19T09:27:45.299Z,12.47
2018-12-19T09:30:14.831Z,12.10
2018-12-19T09:32:44.180Z,11.30
2018-12-19T09:35:13.541Z,12.93
2018-12-19T09:37:42.890Z,12.33
2018-12-19T09:40:12.277Z,11.93
2018-12-19T09:42:41.532Z,11.53
2018-12-19T09:45:10.833Z,11.93
2018-12-19T09:47:40.087Z,11.70
2018-12-19T09:50:09.787Z,11.87
2018-12-19T09:52:39.122Z,10.17
2018-12-19T09:55:08.390Z,11.03
2018-12-19T09:57:37.855Z,10.57
2018-12-19T10:00:11.627Z,11.20
2018-12-19T10:02:41.580Z,11.57
2018-12-19T10:05:10.903Z,10.47
2018-12-19T10:07:40.394Z,10.73
2018-12-19T10:10:09.774Z,11.17
2018-12-19T10:12:39.005Z,10.10
2018-12-19T10:15:08.533Z,10.23
2018-12-19T10:17:40.939Z,9.50
2018-12-19T10:20:09.274Z,10.10
2018-12-19T10:22:39.272Z,9.40
2018-12-19T10:25:15.676Z,9.07
2018-12-19T10:27:44.963Z,10.07
2018-12-19T10:30:14.733Z,10.03
2018-12-19T10:32:44.107Z,9.63
2018-12-19T10:35:13.537Z,10.27
2018-12-19T10:37:42.774Z,10.53
2018-12-19T10:40:12.637Z,10.23
2018-12-19T10:42:41.882Z,9.47
2018-12-19T10:45:12.152Z,8.90
2018-12-19T10:47:42.285Z,10.10
2018-12-19T10:50:11.714Z,9.47
2018-12-19T10:52:40.981Z,9.53
2018-12-19T10:55:10.435Z,9.90
2018-12-19T10:57:39.680Z,9.63
2018-12-19T11:00:17.742Z,9.73
2018-12-19T11:02:49.093Z,10.53
2018-12-19T11:05:19.101Z,10.33
2018-12-19T11:07:48.291Z,9.33
2018-12-19T11:10:17.642Z,9.63
2018-12-19T11:12:46.899Z,9.93
2018-12-19T11:15:16.154Z,10.13
2018-12-19T11:17:45.549Z,9.93
2018-12-19T11:20:14.857Z,10.10
2018-12-19T11:22:44.678Z,9.50
2018-12-19T11:25:13.972Z,9.40
2018-12-19T11:27:43.796Z,9.33
2018-12-19T11:30:13.092Z,8.97
2018-12-19T11:32:43.211Z,9.77
2018-12-19T11:35:12.435Z,9.90
2018-12-19T11:37:42.384Z,9.27
2018-12-19T11:40:11.732Z,9.23
2018-12-19T11:42:41.168Z,9.77
2018-12-19T11:45:10.425Z,9.40
2018-12-19T11:47:39.729Z,8.70
2018-12-19T11:50:09.398Z,9.40
2018-12-19T11:52:39.369Z,9.87
2018-12-19T11:55:08.918Z,9.27
2018-12-19T11:57:38.580Z,9.33
2018-12-19T12:00:09.633Z,9.33
2018-12-19T12:02:39.287Z,9.53
2018-12-19T12:05:08.627Z,9.80
2018-12-19T12:07:38.003Z,10.10
2018-12-19T12:10:08.595Z,9.77
2018-12-19T12:12:37.924Z,10.77
2018-12-19T12:15:07.913Z,10.03
2018-12-19T12:17:37.635Z,8.50
2018-12-19T12:20:08.562Z,9.03
2018-12-19T12:22:38.050Z,10.20
2018-12-19T12:25:07.636Z,9.00
2018-12-19T12:27:36.917Z,8.23
2018-12-19T12:30:06.866Z,9.37
2018-12-19T12:32:36.053Z,8.50
2018-12-19T12:35:07.068Z,8.97
2018-12-19T12:37:36.317Z,8.90
2018-12-19T12:40:06.628Z,9.10
2018-12-19T12:42:35.972Z,8.80
2018-12-19T12:45:05.882Z,9.13
2018-12-19T12:47:35.154Z,8.60
2018-12-19T12:50:05.478Z,8.50
2018-12-19T12:52:34.917Z,8.40
2018-12-19T12:55:04.384Z,8.70
2018-12-19T12:57:34.177Z,8.80
2018-12-19T13:00:03.582Z,8.93
2018-12-19T13:02:32.813Z,8.73
2018-12-19T13:05:02.020Z,8.70
2018-12-19T13:07:31.369Z,8.23
2018-12-19T13:10:00.581Z,8.70
2018-12-19T13:12:29.816Z,8.27
2018-12-19T13:14:59.305Z,8.57
2018-12-19T13:17:29.136Z,8.57
2018-12-19T13:19:58.386Z,7.80
2018-12-19T13:22:27.636Z,9.57
2018-12-19T13:24:56.843Z,9.07
2018-12-19T13:27:26.203Z,8.60
2018-12-19T13:29:55.435Z,8.63
2018-12-19T13:32:24.708Z,9.33
2018-12-19T13:34:54.481Z,9.90
2018-12-19T13:37:24.311Z,9.13
2018-12-19T13:39:53.737Z,9.13
2018-12-19T13:42:23.080Z,8.70
2018-12-19T13:44:52.336Z,9.50
2018-12-19T13:47:21.899Z,9.33
2018-12-19T13:49:51.959Z,9.13
2018-12-19T13:52:21.221Z,9.03
2018-12-19T13:54:50.558Z,9.70
2018-12-19T13:57:20.560Z,10.13
2018-12-19T13:59:49.955Z,9.70
2018-12-19T14:02:19.456Z,9.80
2018-12-19T14:04:48.922Z,10.50
2018-12-19T14:07:18.286Z,8.67
2018-12-19T14:09:49.796Z,9.07
2018-12-19T14:12:19.035Z,9.57
2018-12-19T14:14:49.075Z,9.50
2018-12-19T14:17:19.011Z,10.03
2018-12-19T14:19:48.437Z,9.90
2018-12-19T14:22:17.686Z,10.10
2018-12-19T14:24:46.979Z,8.73
2018-12-19T14:27:17.318Z,9.97
2018-12-19T14:29:47.528Z,10.50
2018-12-19T14:32:17.071Z,9.23
2018-12-19T14:34:47.804Z,10.00
2018-12-19T14:37:17.381Z,9.77
2018-12-19T14:39:47.100Z,9.90
2018-12-19T14:42:19.248Z,9.87
2018-12-19T14:44:47.808Z,8.93
2018-12-19T14:47:17.129Z,9.50
2018-12-19T14:49:47.127Z,9.73
2018-12-19T14:52:16.512Z,10.87
2018-12-19T14:54:45.810Z,10.87
2018-12-19T14:57:15.349Z,10.67
2018-12-19T14:59:45.446Z,11.40
2018-12-19T15:02:15.699Z,10.30
2018-12-19T15:04:48.923Z,11.00
2018-12-19T15:07:21.367Z,11.33
2018-12-19T15:09:51.368Z,10.40
2018-12-19T15:12:25.768Z,11.03
2018-12-19T15:14:52.591Z,10.90
2018-12-19T15:17:21.904Z,11.33
2018-12-19T15:19:51.685Z,10.73
2018-12-19T15:22:20.961Z,10.30
2018-12-19T15:24:50.203Z,10.37
2018-12-19T15:27:19.538Z,10.50
2018-12-19T15:29:49.073Z,10.80
2018-12-19T15:32:18.497Z,10.27
2018-12-19T15:34:48.556Z,10.10
2018-12-19T15:37:18.046Z,10.40
2018-12-19T15:39:47.307Z,10.30
2018-12-19T15:42:16.512Z,10.50
2018-12-19T15:44:45.789Z,11.43
2018-12-19T15:47:15.045Z,11.20
2018-12-19T15:49:45.290Z,9.90
2018-12-19T15:52:15.072Z,10.43
2018-12-19T15:54:44.668Z,10.90
2018-12-19T15:57:14.113Z,11.07
2018-12-19T15:59:45.179Z,10.00
2018-12-19T16:02:16.019Z,12.03
2018-12-19T16:04:48.514Z,12.03
2018-12-19T16:07:18.510Z,11.40
2018-12-19T16:09:48.073Z,11.80
2018-12-19T16:12:17.365Z,10.93
2018-12-19T16:14:52.582Z,11.77
2018-12-19T16:17:21.873Z,11.70
2018-12-19T16:19:52.228Z,12.07
2018-12-19T16:22:33.821Z,11.50
2018-12-19T16:25:03.226Z,12.37
2018-12-19T16:27:32.536Z,12.77
2018-12-19T16:30:02.107Z,11.63
2018-12-19T16:32:31.356Z,13.20
2018-12-19T16:35:01.408Z,12.20
2018-12-19T16:37:30.644Z,12.33
2018-12-19T16:40:00.903Z,11.90
2018-12-19T16:42:30.276Z,12.87
2018-12-19T16:45:00.593Z,12.73
2018-12-19T16:47:29.803Z,12.30
2018-12-19T16:49:59.197Z,13.60
2018-12-19T16:52:28.729Z,13.57
2018-12-19T16:54:58.008Z,13.20
2018-12-19T16:57:27.303Z,13.70
2018-12-19T16:59:56.948Z,14.20
2018-12-19T17:02:26.452Z,15.13
2018-12-19T17:04:55.810Z,15.10
2018-12-19T17:07:25.079Z,14.20
2018-12-19T17:09:54.910Z,15.07
2018-12-19T17:12:26.109Z,13.33
2018-12-19T17:14:55.407Z,14.27
2018-12-19T17:17:24.909Z,14.07
2018-12-19T17:19:54.433Z,15.10
2018-12-19T17:22:24.194Z,14.73
2018-12-19T17:25:00.285Z,14.73
2018-12-19T17:27:29.953Z,15.40
2018-12-19T17:29:59.436Z,14.30
2018-12-19T17:32:29.290Z,14.57
2018-12-19T17:34:58.929Z,15.70
2018-12-19T17:37:29.000Z,16.27
2018-12-19T17:39:58.627Z,15.87
2018-12-19T17:42:28.222Z,14.77
2018-12-19T17:44:58.387Z,15.00
2018-12-19T17:47:28.132Z,16.07
2018-12-19T17:49:57.656Z,16.30
2018-12-19T17:52:27.729Z,16.93
2018-12-19T17:54:57.248Z,16.10
2018-12-19T17:57:27.914Z,16.47
2018-12-19T17:59:57.501Z,16.10
2018-12-19T18:02:28.121Z,16.47
2018-12-19T18:04:57.504Z,17.50
2018-12-19T18:07:27.754Z,16.60
2018-12-19T18:09:58.285Z,15.97
2018-12-19T18:12:27.832Z,15.37
2018-12-19T18:14:57.739Z,14.73
2018-12-19T18:17:27.353Z,17.10
2018-12-19T18:19:58.030Z,16.63
2018-12-19T18:22:28.394Z,16.13
2018-12-19T18:24:58.270Z,16.13
2018-12-19T18:27:28.089Z,16.63
2018-12-19T18:29:58.522Z,17.10
2018-12-19T18:32:28.566Z,16.17
2018-12-19T18:34:58.541Z,16.20
2018-12-19T18:37:30.401Z,16.83
2018-12-19T18:39:59.973Z,15.37
2018-12-19T18:42:29.708Z,16.20
2018-12-19T18:45:02.005Z,16.27
2018-12-19T18:47:31.594Z,15.93
2018-12-19T18:50:01.471Z,15.47
2018-12-19T18:52:31.242Z,16.30
2018-12-19T18:55:01.733Z,15.53
2018-12-19T18:57:31.457Z,14.20
2018-12-19T19:00:01.148Z,14.43
2018-12-19T19:02:30.867Z,14.93
2018-12-19T19:05:01.163Z,15.03
2018-12-19T19:07:33.408Z,15.47
2018-12-19T19:10:03.298Z,15.17
2018-12-19T19:12:32.941Z,21.73
2018-12-19T19:15:03.146Z,17.37
2018-12-19T19:17:32.758Z,16.53
2018-12-19T19:20:02.488Z,16.57
2018-12-19T19:22:32.122Z,15.70
2018-12-19T19:25:01.728Z,15.47
2018-12-19T19:27:33.034Z,14.87
2018-12-19T19:30:02.939Z,13.90
2018-12-19T19:32:32.590Z,14.43
2018-12-19T19:35:02.403Z,14.07
2018-12-19T19:37:32.350Z,14.67
2018-12-19T19:40:05.384Z,14.77
2018-12-19T19:42:35.171Z,15.23
2018-12-19T19:45:05.278Z,15.03
2018-12-19T19:47:34.973Z,15.50
2018-12-19T19:50:05.890Z,14.80
2018-12-19T19:52:35.531Z,15.13
2018-12-19T19:55:05.377Z,15.30
2018-12-19T19:57:35.628Z,14.67
2018-12-19T20:00:06.392Z,14.13
2018-12-19T20:02:36.016Z,14.03
2018-12-19T20:05:06.402Z,13.73
2018-12-19T20:07:37.730Z,14.67
2018-12-19T20:10:07.818Z,14.87
2018-12-19T20:12:38.456Z,15.57
2018-12-19T20:15:08.334Z,15.90
2018-12-19T20:17:37.980Z,14.30
2018-12-19T20:20:07.761Z,15.23
2018-12-19T20:22:39.203Z,15.07
2018-12-19T20:25:08.872Z,15.27
2018-12-19T20:27:40.396Z,15.23
2018-12-19T20:30:11.861Z,13.87
2018-12-19T20:32:42.329Z,15.00
2018-12-19T20:35:12.505Z,14.40
2018-12-19T20:37:43.994Z,14.47
2018-12-19T20:40:14.007Z,14.20
2018-12-19T20:42:44.089Z,16.00
2018-12-19T20:45:14.562Z,15.90
2018-12-19T20:47:45.513Z,15.73
2018-12-19T20:50:15.274Z,16.07
2018-12-19T20:52:45.498Z,17.17
2018-12-19T20:55:15.629Z,18.00
2018-12-19T20:57:45.920Z,17.70
2018-12-19T21:00:15.716Z,16.73
2018-12-19T21:02:45.717Z,16.30
2018-12-19T21:05:15.430Z,17.23
2018-12-19T21:07:46.053Z,17.70
2018-12-19T21:10:16.112Z,16.90
2018-12-19T21:12:47.404Z,16.70
2018-12-19T21:15:17.873Z,16.07
2018-12-19T21:17:53.467Z,16.80
2018-12-19T21:20:23.187Z,17.10
2018-12-19T21:22:52.941Z,18.97
2018-12-19T21:25:24.995Z,16.23
2018-12-19T21:27:54.986Z,17.80
2018-12-19T21:30:27.056Z,17.83
2018-12-19T21:32:56.778Z,19.27
2018-12-19T21:35:26.506Z,19.13
2018-12-19T21:37:56.208Z,17.87
2018-12-19T21:40:25.899Z,17.87
2018-12-19T21:42:56.797Z,19.53
2018-12-19T21:45:26.212Z,18.70
2018-12-19T21:47:55.574Z,18.67
2018-12-19T21:50:25.794Z,20.43
2018-12-19T21:52:55.169Z,19.67
2018-12-19T21:55:24.571Z,19.73
2018-12-19T21:57:53.868Z,20.37
2018-12-19T22:00:25.325Z,20.40
2018-12-19T22:02:54.862Z,20.87
2018-12-19T22:05:24.173Z,21.23
2018-12-19T22:07:56.135Z,23.07
2018-12-19T22:10:26.311Z,20.70
2018-12-19T22:12:56.159Z,21.50
2018-12-19T22:15:25.758Z,21.17
2018-12-19T22:18:00.542Z,24.43
2018-12-19T22:20:30.035Z,23.03
2018-12-19T22:22:59.557Z,23.30
2018-12-19T22:25:29.640Z,24.50
2018-12-19T22:27:58.969Z,23.63
2018-12-19T22:30:29.322Z,23.67
2018-12-19T22:32:58.723Z,25.80
2018-12-19T22:35:28.558Z,22.93
2018-12-19T22:37:58.134Z,23.90
2018-12-19T22:40:27.453Z,25.97
2018-12-19T22:42:56.670Z,24.80
2018-12-19T22:45:27.164Z,23.93
2018-12-19T22:47:56.737Z,25.73
2018-12-19T22:50:26.355Z,26.30
2018-12-19T22:52:55.621Z,24.17
2018-12-19T22:55:24.900Z,26.37
2018-12-19T22:57:54.232Z,26.10
2018-12-19T23:00:23.754Z,26.47
2018-12-19T23:02:58.333Z,25.00
2018-12-19T23:05:32.852Z,26.03
2018-12-19T23:08:02.224Z,27.80
2018-12-19T23:10:31.496Z,26.80
2018-12-19T23:13:01.830Z,25.70
2018-12-19T23:15:31.132Z,27.33
2018-12-19T23:18:33.895Z,27.23
2018-12-19T23:21:10.669Z,26.27
2018-12-19T23:23:40.796Z,25.43
2018-12-19T23:26:12.882Z,27.83
2018-12-19T23:28:42.832Z,25.07
2018-12-19T23:31:12.323Z,25.50
2018-12-19T23:33:42.087Z,25.43
2018-12-19T23:36:11.387Z,24.37
2018-12-19T23:38:41.428Z,25.27
2018-12-19T23:41:10.842Z,24.60
2018-12-19T23:43:40.195Z,24.87
2018-12-19T23:46:09.397Z,26.77
2018-12-19T23:48:39.439Z,26.47
2018-12-19T23:51:09.335Z,24.57
2018-12-19T23:53:39.325Z,24.10
2018-12-19T23:56:08.826Z,22.67
2018-12-19T23:58:38.060Z,24.30
